Time;durP1;ratioP1;P1;durP2;ratioP2;P2;SDS_P1;SDS_P2;PMS_P1;PMS_P2;Temp;Humidity;BMP_temperature;BMP_pressure;BME280_temperature;BME280_humidity;BME280_pressure;Samples;Min_cycle;Max_cycle;Signal;HPM_P1;HPM_P2
2023/11/19 00:00:33;;;;;;;4.53;3.10;;;;;;;4.93;100.00;101008.44;5072555;28;20192;-70
2023/11/19 00:03:04;;;;;;;3.58;3.15;;;;;;;4.92;100.00;101004.06;5072572;28;20313;-69
2023/11/19 00:05:33;;;;;;;6.40;3.40;;;;;;;4.94;100.00;100989.47;5074347;28;20191;-70
2023/11/19 00:08:02;;;;;;;2.58;1.85;;;;;;;4.84;100.00;100983.44;5074007;28;20188;-71
2023/11/19 00:10:30;;;;;;;5.35;4.18;;;;;;;4.93;100.00;100981.63;5070329;28;20563;-71
2023/11/19 00:12:59;;;;;;;6.72;4.35;;;;;;;4.94;100.00;100964.53;5068490;28;20217;-69
2023/11/19 00:15:28;;;;;;;4.82;2.78;;;;;;;4.85;100.00;100966.34;5072901;28;20203;-70
2023/11/19 00:17:57;;;;;;;4.97;4.38;;;;;;;4.98;100.00;100965.88;5072029;28;20188;-70
2023/11/19 00:20:31;;;;;;;2.25;2.05;;;;;;;4.99;100.00;100954.13;5074505;28;20208;-71
2023/11/19 00:23:01;;;;;;;5.75;2.58;;;;;;;4.94;99.50;100943.09;5072669;28;20255;-70
2023/11/19 00:25:30;;;;;;;4.10;3.20;;;;;;;4.94;100.00;100945.78;5065570;28;20630;-68
2023/11/19 00:27:59;;;;;;;8.00;3.10;;;;;;;5.00;99.07;100934.34;5064326;28;20192;-69
2023/11/19 00:30:28;;;;;;;7.32;3.70;;;;;;;5.00;99.75;100929.84;5068769;28;20271;-70
2023/11/19 00:32:57;;;;;;;3.08;1.95;;;;;;;4.94;100.00;100929.69;5070128;28;20732;-69
2023/11/19 00:35:26;;;;;;;3.70;2.65;;;;;;;4.96;100.00;100924.97;5069060;28;20192;-70
2023/11/19 00:37:57;;;;;;;4.25;3.53;;;;;;;5.02;98.96;100921.63;5063580;28;20245;-71
2023/11/19 00:40:26;;;;;;;4.88;2.45;;;;;;;5.01;100.00;100920.78;5078714;28;20682;-70
2023/11/19 00:42:55;;;;;;;3.67;1.83;;;;;;;5.04;98.72;100900.81;5071961;28;20195;-69
2023/11/19 00:45:27;;;;;;;4.07;2.88;;;;;;;4.99;99.31;100889.75;5072439;28;20203;-70
2023/11/19 00:47:55;;;;;;;4.85;3.65;;;;;;;5.08;98.94;100889.59;5075469;28;20207;-70
2023/11/19 00:50:24;;;;;;;4.55;2.70;;;;;;;5.02;98.32;100884.09;5070550;28;20219;-70
2023/11/19 00:52:54;;;;;;;4.35;2.65;;;;;;;5.00;97.58;100872.66;5074145;28;20600;-70
2023/11/19 00:55:23;;;;;;;3.95;2.90;;;;;;;5.04;98.88;100874.84;5077303;28;20200;-70
2023/11/19 00:57:52;;;;;;;2.53;2.15;;;;;;;5.08;97.80;100862.78;5070445;28;20208;-70
2023/11/19 01:00:26;;;;;;;6.68;2.75;;;;;;;5.10;97.36;100860.78;5075140;28;20203;-69
2023/11/19 01:02:55;;;;;;;3.70;2.35;;;;;;;5.07;97.60;100842.34;5075146;28;20286;-69
2023/11/19 01:05:24;;;;;;;3.90;3.60;;;;;;;5.07;97.48;100834.31;5068588;28;20189;-70
2023/11/19 01:07:53;;;;;;;4.80;3.85;;;;;;;5.12;98.04;100831.13;5073902;28;20230;-69
2023/11/19 01:10:25;;;;;;;4.90;3.10;;;;;;;5.10;97.08;100822.38;5072886;28;20192;-68
2023/11/19 01:12:54;;;;;;;7.38;3.40;;;;;;;5.09;96.57;100809.97;5073384;28;20567;-69
2023/11/19 01:15:23;;;;;;;5.15;2.60;;;;;;;5.11;97.03;100790.03;5068034;28;20291;-68
2023/11/19 01:17:52;;;;;;;4.22;2.33;;;;;;;5.13;96.87;100769.22;5070154;28;20204;-69
2023/11/19 01:20:22;;;;;;;2.90;2.30;;;;;;;5.29;96.82;100764.84;5071394;28;20192;-69
2023/11/19 01:22:50;;;;;;;5.28;2.63;;;;;;;5.30;96.29;100771.91;5071125;28;20692;-69
2023/11/19 01:25:19;;;;;;;4.22;2.35;;;;;;;5.18;95.82;100766.88;5064933;28;20215;-70
2023/11/19 01:27:50;;;;;;;4.80;3.33;;;;;;;5.07;96.05;100769.09;5071207;28;20189;-70
2023/11/19 01:30:19;;;;;;;4.70;2.90;;;;;;;5.22;96.12;100772.75;5073374;28;20188;-69
2023/11/19 01:32:50;;;;;;;4.63;3.05;;;;;;;5.20;96.12;100762.19;5070034;28;20197;-69
2023/11/19 01:35:19;;;;;;;2.65;1.90;;;;;;;5.20;95.75;100756.81;5068965;28;20213;-70
2023/11/19 01:37:48;;;;;;;2.45;1.80;;;;;;;5.19;94.84;100759.66;5075144;28;20561;-70
2023/11/19 01:40:20;;;;;;;3.60;2.30;;;;;;;5.27;93.62;100754.31;5066643;28;20196;-71
2023/11/19 01:42:51;;;;;;;8.18;3.45;;;;;;;5.20;94.11;100730.00;5063346;28;20185;-69
2023/11/19 01:45:28;;;;;;;5.50;2.30;;;;;;;5.31;94.10;100718.06;5065918;28;20231;-69
2023/11/19 01:47:58;;;;;;;2.75;2.55;;;;;;;5.34;93.24;100714.19;5060808;28;20247;-69
2023/11/19 01:50:28;;;;;;;7.47;2.65;;;;;;;5.24;93.38;100700.97;5073108;28;20210;-71
2023/11/19 01:52:58;;;;;;;3.22;2.50;;;;;;;5.22;93.80;100692.28;5070255;28;20195;-69
2023/11/19 01:55:28;;;;;;;4.85;2.83;;;;;;;5.34;93.41;100690.88;5073333;28;20194;-70
2023/11/19 01:58:02;;;;;;;3.85;2.53;;;;;;;5.35;94.10;100681.00;5063318;28;20224;-70
2023/11/19 02:00:34;;;;;;;2.97;1.90;;;;;;;5.31;94.30;100679.66;5076092;28;20290;-70
2023/11/19 02:03:04;;;;;;;2.88;2.35;;;;;;;5.35;94.13;100681.00;5068063;28;20220;-70
2023/11/19 02:05:34;;;;;;;3.53;2.95;;;;;;;5.35;95.09;100676.47;5076405;28;20191;-69
2023/11/19 02:08:03;;;;;;;5.68;2.72;;;;;;;5.33;93.46;100656.16;5092176;28;20187;-69
2023/11/19 02:10:47;;;;;;;4.45;2.97;;;;;;;5.25;94.65;100632.91;5097998;28;20665;-69
2023/11/19 02:13:17;;;;;;;1.90;1.65;;;;;;;5.16;95.55;100625.91;5079326;28;20222;-69
2023/11/19 02:15:46;;;;;;;2.35;2.13;;;;;;;5.13;95.97;100607.47;5088897;28;20230;-69
2023/11/19 02:18:23;;;;;;;6.97;2.88;;;;;;;5.30;96.52;100594.81;5085033;28;20207;-71
2023/11/19 02:20:52;;;;;;;6.00;3.25;;;;;;;5.27;96.69;100601.38;5075903;28;20195;-70
2023/11/19 02:23:22;;;;;;;3.22;2.00;;;;;;;5.23;96.85;100591.97;5078126;28;20227;-69
2023/11/19 02:26:08;;;;;;;4.40;2.72;;;;;;;5.20;97.89;100603.06;5099077;28;20187;-68
2023/11/19 02:28:39;;;;;;;4.05;2.60;;;;;;;5.25;96.82;100600.72;5098696;28;20191;-71
2023/11/19 02:31:11;;;;;;;2.50;2.30;;;;;;;5.28;97.08;100594.16;5106493;28;20195;-72
2023/11/19 02:33:41;;;;;;;3.58;2.45;;;;;;;5.29;95.84;100582.41;5096485;28;20211;-70
2023/11/19 02:36:11;;;;;;;4.32;2.00;;;;;;;5.25;96.33;100571.19;5095078;28;20203;-69
2023/11/19 02:38:40;;;;;;;2.70;1.42;;;;;;;5.29;96.68;100563.63;5072231;28;20295;-70
2023/11/19 02:41:10;;;;;;;4.03;2.90;;;;;;;5.22;96.95;100558.16;5091254;28;20738;-69
2023/11/19 02:43:41;;;;;;;2.72;2.33;;;;;;;5.22;96.40;100542.88;5061530;28;20221;-69
2023/11/19 02:46:10;;;;;;;3.88;3.47;;;;;;;5.17;96.96;100542.59;5091595;28;20676;-68
2023/11/19 02:48:43;;;;;;;3.00;2.22;;;;;;;5.24;97.43;100534.66;5091062;28;20224;-70
2023/11/19 02:51:12;;;;;;;3.20;2.08;;;;;;;5.30;97.29;100531.25;5089263;28;20534;-69
2023/11/19 02:53:41;;;;;;;2.58;1.80;;;;;;;5.35;97.27;100528.88;5075900;28;20277;-69
2023/11/19 02:56:19;;;;;;;3.75;2.40;;;;;;;5.30;97.21;100514.31;5093863;28;20180;-68
2023/11/19 02:58:54;;;;;;;2.45;2.03;;;;;;;5.38;96.95;100499.00;5074353;28;20234;-69
2023/11/19 03:01:29;;;;;;;5.47;2.45;;;;;;;5.56;96.48;100491.50;5071242;28;20734;-68
2023/11/19 03:04:01;;;;;;;4.43;2.47;;;;;;;5.31;97.41;100489.16;5091081;28;20211;-68
2023/11/19 03:06:31;;;;;;;2.00;1.77;;;;;;;5.34;97.30;100486.97;5081099;28;20206;-68
2023/11/19 03:09:05;;;;;;;2.67;1.90;;;;;;;5.41;97.02;100493.31;5085654;28;20206;-69
2023/11/19 03:11:34;;;;;;;3.42;2.33;;;;;;;5.42;97.23;100489.56;5071823;28;20652;-69
2023/11/19 03:14:05;;;;;;;2.60;1.50;;;;;;;5.47;96.28;100502.50;5089013;28;20215;-68
2023/11/19 03:16:34;;;;;;;5.00;1.98;;;;;;;5.57;95.72;100501.22;5079590;28;20665;-69
2023/11/19 03:19:04;;;;;;;5.85;2.88;;;;;;;5.55;95.70;100500.56;5093351;28;20227;-69
2023/11/19 03:21:34;;;;;;;3.55;1.70;;;;;;;5.56;95.85;100504.94;5092169;28;20218;-69
2023/11/19 03:24:03;;;;;;;2.60;1.75;;;;;;;5.58;95.80;100510.09;5092260;28;20203;-66
2023/11/19 03:26:33;;;;;;;3.45;3.03;;;;;;;5.46;96.05;100501.66;5091949;28;20270;-69
2023/11/19 03:29:04;;;;;;;2.10;1.60;;;;;;;5.36;98.03;100498.38;5073498;28;20287;-68
2023/11/19 03:31:33;;;;;;;2.65;1.98;;;;;;;5.51;99.38;100482.31;5070653;28;20383;-68
2023/11/19 03:34:02;;;;;;;2.50;2.00;;;;;;;5.34;99.54;100470.03;5073845;28;20211;-69
2023/11/19 03:36:34;;;;;;;4.65;1.95;;;;;;;5.36;100.00;100449.22;5072995;28;20253;-68
2023/11/19 03:39:04;;;;;;;1.67;1.40;;;;;;;5.24;100.00;100446.13;5079191;28;20290;-68
2023/11/19 03:41:33;;;;;;;1.75;1.23;;;;;;;5.25;100.00;100427.16;5091953;28;20589;-68
2023/11/19 03:44:06;;;;;;;5.35;2.22;;;;;;;5.08;100.00;100435.53;5063037;28;20298;-67
2023/11/19 03:46:36;;;;;;;2.17;1.63;;;;;;;4.98;100.00;100433.06;5093166;28;20195;-67
2023/11/19 03:49:06;;;;;;;3.67;2.45;;;;;;;4.86;100.00;100428.25;5089270;28;20191;-69
2023/11/19 03:51:36;;;;;;;3.90;2.97;;;;;;;4.84;100.00;100414.22;5092080;28;20186;-67
2023/11/19 03:54:06;;;;;;;3.80;2.80;;;;;;;4.94;100.00;100398.75;5083042;28;20709;-69
2023/11/19 03:56:35;;;;;;;2.78;1.80;;;;;;;4.92;100.00;100398.06;5096250;28;20205;-69
2023/11/19 03:59:09;;;;;;;2.60;2.05;;;;;;;4.91;100.00;100393.72;5070324;28;20261;-68
2023/11/19 04:01:38;;;;;;;3.45;2.05;;;;;;;4.90;100.00;100373.28;5091724;28;20273;-68
2023/11/19 04:04:07;;;;;;;1.60;1.33;;;;;;;4.84;100.00;100366.81;5071355;28;20261;-68
2023/11/19 04:06:36;;;;;;;4.68;2.25;;;;;;;4.72;100.00;100370.88;5090855;28;20188;-68
2023/11/19 04:09:05;;;;;;;4.03;2.50;;;;;;;4.84;100.00;100357.94;5074095;28;20187;-68
2023/11/19 04:11:37;;;;;;;3.00;2.55;;;;;;;4.79;100.00;100350.41;5090008;28;20187;-68
2023/11/19 04:14:07;;;;;;;2.30;1.95;;;;;;;4.87;100.00;100345.00;5094441;28;20290;-70
2023/11/19 04:16:36;;;;;;;2.25;1.88;;;;;;;4.85;100.00;100340.81;5090778;28;20241;-70
2023/11/19 04:19:06;;;;;;;2.40;2.00;;;;;;;4.87;100.00;100328.06;5091514;28;20641;-68
2023/11/19 04:21:35;;;;;;;4.70;3.10;;;;;;;4.77;100.00;100321.09;5086008;28;20485;-68
2023/11/19 04:24:04;;;;;;;4.05;2.50;;;;;;;4.81;100.00;100318.88;5072568;28;20580;-68
2023/11/19 04:26:34;;;;;;;3.47;2.25;;;;;;;5.02;100.00;100320.91;5090012;28;20256;-68
2023/11/19 04:29:05;;;;;;;3.25;2.20;;;;;;;4.90;100.00;100325.00;5090822;28;20549;-69
2023/11/19 04:31:36;;;;;;;9.55;2.22;;;;;;;4.88;100.00;100309.13;5089391;28;20248;-66
2023/11/19 04:34:06;;;;;;;2.45;2.25;;;;;;;4.90;100.00;100323.16;5091176;28;20265;-69
2023/11/19 04:36:35;;;;;;;2.22;1.98;;;;;;;4.90;100.00;100314.28;5094233;28;20248;-67
2023/11/19 04:39:08;;;;;;;5.43;2.47;;;;;;;4.79;100.00;100308.34;5094500;28;20209;-68
2023/11/19 04:41:37;;;;;;;3.17;2.65;;;;;;;4.82;100.00;100316.03;5081613;28;20223;-68
2023/11/19 04:44:08;;;;;;;2.75;1.70;;;;;;;4.89;100.00;100316.13;5099714;28;20219;-69
2023/11/19 04:46:39;;;;;;;4.15;2.40;;;;;;;4.81;100.00;100314.38;5094479;28;20287;-69
2023/11/19 04:49:08;;;;;;;2.47;1.98;;;;;;;4.79;100.00;100300.28;5086844;28;20238;-69
2023/11/19 04:51:40;;;;;;;4.10;2.05;;;;;;;4.88;100.00;100289.53;5065933;28;20195;-69
2023/11/19 04:54:10;;;;;;;3.08;2.47;;;;;;;5.01;100.00;100290.56;5093098;28;20598;-69
2023/11/19 04:56:39;;;;;;;3.72;2.55;;;;;;;4.88;100.00;100292.22;5090970;28;20248;-68
2023/11/19 04:59:08;;;;;;;3.13;2.78;;;;;;;4.79;100.00;100278.84;5096840;28;20199;-70
2023/11/19 05:01:39;;;;;;;4.82;2.90;;;;;;;4.81;100.00;100271.47;5092116;28;20191;-67
2023/11/19 05:04:09;;;;;;;3.00;1.77;;;;;;;4.81;100.00;100255.38;5092499;28;20215;-68
2023/11/19 05:06:39;;;;;;;7.07;3.05;;;;;;;4.68;100.00;100257.84;5087819;28;20191;-68
2023/11/19 05:09:08;;;;;;;3.00;1.90;;;;;;;4.76;100.00;100255.09;5096408;28;20246;-68
2023/11/19 05:11:38;;;;;;;3.58;2.60;;;;;;;4.79;100.00;100233.28;5101726;28;20260;-68
2023/11/19 05:14:20;;;;;;;2.35;2.15;;;;;;;4.78;100.00;100226.28;5092372;28;20311;-67
2023/11/19 05:16:50;;;;;;;5.32;2.15;;;;;;;4.70;100.00;100212.91;5075156;28;20270;-68
2023/11/19 05:19:19;;;;;;;4.75;2.50;;;;;;;4.75;100.00;100198.97;5091329;28;20302;-69
2023/11/19 05:21:52;;;;;;;2.97;2.60;;;;;;;4.86;100.00;100192.34;5102473;28;20668;-70
2023/11/19 05:24:21;;;;;;;3.65;2.42;;;;;;;4.77;100.00;100189.75;5104159;28;20773;-69
2023/11/19 05:26:50;;;;;;;7.43;2.03;;;;;;;4.78;100.00;100196.78;5090893;28;20188;-69
2023/11/19 05:29:19;;;;;;;2.95;2.20;;;;;;;4.81;100.00;100204.47;5094348;28;20191;-68
2023/11/19 05:31:50;;;;;;;2.05;1.95;;;;;;;4.75;100.00;100194.44;5097283;28;20657;-66
2023/11/19 05:34:18;;;;;;;3.95;2.80;;;;;;;4.89;100.00;100181.28;5095093;28;20298;-66
2023/11/19 05:36:48;;;;;;;4.45;3.15;;;;;;;4.89;100.00;100187.44;5099517;28;20187;-68
2023/11/19 05:39:18;;;;;;;2.55;2.20;;;;;;;4.92;100.00;100186.25;5095552;28;20199;-65
2023/11/19 05:41:48;;;;;;;2.70;2.50;;;;;;;4.78;100.00;100172.66;5095594;28;20226;-67
2023/11/19 05:44:17;;;;;;;3.50;2.08;;;;;;;4.78;100.00;100164.63;5077372;28;20225;-67
2023/11/19 05:46:46;;;;;;;3.75;2.35;;;;;;;4.79;100.00;100160.09;5091767;28;20209;-66
2023/11/19 05:49:17;;;;;;;4.05;2.20;;;;;;;4.76;100.00;100149.72;5103156;28;20187;-66
2023/11/19 05:51:46;;;;;;;3.00;1.83;;;;;;;4.85;100.00;100147.78;5099083;28;20599;-65
2023/11/19 05:54:15;;;;;;;3.58;2.05;;;;;;;4.77;100.00;100141.50;5101225;28;20302;-66
2023/11/19 05:56:49;;;;;;;2.88;1.73;;;;;;;4.91;100.00;100141.69;5089007;28;20626;-66
2023/11/19 05:59:18;;;;;;;5.38;2.50;;;;;;;4.95;100.00;100122.38;5076342;28;20211;-65
2023/11/19 06:01:47;;;;;;;5.40;2.28;;;;;;;4.89;100.00;100115.06;5086338;28;20688;-66
2023/11/19 06:04:17;;;;;;;5.13;2.50;;;;;;;5.02;100.00;100127.84;5100581;28;20634;-67
2023/11/19 06:06:46;;;;;;;2.05;1.73;;;;;;;4.93;100.00;100126.28;5086486;28;20195;-66
2023/11/19 06:09:15;;;;;;;8.75;1.83;;;;;;;4.92;100.00;100128.13;5103196;28;20183;-66
2023/11/19 06:11:44;;;;;;;3.10;1.73;;;;;;;5.02;100.00;100128.69;5094137;28;20195;-67
2023/11/19 06:14:13;;;;;;;3.78;2.53;;;;;;;4.93;100.00;100123.59;5100221;28;20286;-67
2023/11/19 06:16:42;;;;;;;5.88;2.88;;;;;;;4.93;100.00;100123.59;5103565;28;20221;-68
2023/11/19 06:19:11;;;;;;;2.20;1.50;;;;;;;4.99;100.00;100114.78;5094903;28;20234;-66
2023/11/19 06:21:42;;;;;;;3.42;1.85;;;;;;;5.04;100.00;100101.66;5097776;28;20196;-66
2023/11/19 06:24:11;;;;;;;2.85;1.38;;;;;;;5.01;100.00;100100.19;5116498;28;20225;-66
2023/11/19 06:26:39;;;;;;;3.53;2.10;;;;;;;5.09;100.00;100097.41;5119559;28;20191;-66
2023/11/19 06:29:08;;;;;;;4.38;2.20;;;;;;;5.12;100.00;100093.53;5104783;28;20196;-64
2023/11/19 06:31:37;;;;;;;5.72;1.70;;;;;;;5.07;100.00;100085.22;5117987;28;20197;-66
2023/11/19 06:34:06;;;;;;;3.40;2.00;;;;;;;5.29;100.00;100072.69;5119764;28;20211;-65
2023/11/19 06:36:35;;;;;;;3.85;2.17;;;;;;;5.20;100.00;100067.44;5102405;28;20195;-67
2023/11/19 06:39:06;;;;;;;5.25;2.60;;;;;;;5.24;100.00;100074.09;5102526;28;20229;-65
2023/11/19 06:41:38;;;;;;;4.88;1.65;;;;;;;5.19;100.00;100092.59;5101646;28;20207;-67
2023/11/19 06:44:07;;;;;;;3.13;2.03;;;;;;;5.19;100.00;100067.63;5101337;28;20252;-66
2023/11/19 06:46:36;;;;;;;4.32;2.65;;;;;;;5.29;100.00;100080.72;5097223;28;20188;-66
2023/11/19 06:49:05;;;;;;;3.53;1.90;;;;;;;5.26;100.00;100071.22;5097767;28;20191;-67
2023/11/19 06:51:34;;;;;;;2.40;2.20;;;;;;;5.31;100.00;100079.53;5094787;28;20199;-67
2023/11/19 06:54:05;;;;;;;3.38;1.80;;;;;;;5.27;100.00;100064.84;5093704;28;20234;-67
2023/11/19 06:56:34;;;;;;;1.63;1.52;;;;;;;5.20;100.00;100072.81;5097285;28;20357;-66
2023/11/19 06:59:02;;;;;;;2.95;2.10;;;;;;;5.16;100.00;100060.78;5092948;28;20677;-67
2023/11/19 07:02:23;;;;;;;4.35;2.20;;;;;;;5.09;100.00;100051.81;5100325;28;20187;-67
2023/11/19 07:04:55;;;;;;;4.50;2.60;;;;;;;5.24;100.00;100057.16;5108336;28;20218;-66
2023/11/19 07:07:24;;;;;;;2.95;1.48;;;;;;;5.22;100.00;100059.22;5108009;28;20194;-66
2023/11/19 07:09:54;;;;;;;2.10;1.60;;;;;;;5.21;100.00;100052.19;5101341;28;20195;-66
2023/11/19 07:12:24;;;;;;;3.35;2.05;;;;;;;5.36;100.00;100054.84;5094981;28;20213;-66
2023/11/19 07:14:53;;;;;;;5.32;1.88;;;;;;;5.48;100.00;100064.88;5101666;28;20640;-65
2023/11/19 07:17:21;;;;;;;1.85;1.60;;;;;;;5.39;100.00;100076.75;5096485;28;20192;-67
2023/11/19 07:19:52;;;;;;;2.50;2.10;;;;;;;5.37;100.00;100077.97;5071310;28;20207;-66
2023/11/19 07:22:21;;;;;;;1.75;1.45;;;;;;;5.36;100.00;100069.09;5103248;28;20187;-67
2023/11/19 07:24:50;;;;;;;3.17;1.90;;;;;;;5.43;100.00;100067.28;5092289;28;20588;-66
2023/11/19 07:27:20;;;;;;;1.92;1.42;;;;;;;5.39;100.00;100054.44;5096442;28;20196;-67
2023/11/19 07:29:49;;;;;;;2.15;1.40;;;;;;;5.54;100.00;100061.44;5090765;28;20180;-67
2023/11/19 07:32:19;;;;;;;2.30;1.70;;;;;;;5.54;100.00;100058.75;5081007;28;20247;-67
2023/11/19 07:34:47;;;;;;;2.40;1.40;;;;;;;5.51;100.00;100048.41;5091972;28;20204;-67
2023/11/19 07:37:16;;;;;;;2.58;1.73;;;;;;;5.67;100.00;100058.88;5070555;28;20702;-67
2023/11/19 07:39:45;;;;;;;2.35;1.23;;;;;;;5.59;100.00;100058.19;5091847;28;20236;-65
2023/11/19 07:42:15;;;;;;;2.60;1.65;;;;;;;5.60;100.00;100068.75;5087556;28;20248;-67
2023/11/19 07:44:45;;;;;;;2.65;2.03;;;;;;;5.71;100.00;100069.25;5092749;28;20484;-67
2023/11/19 07:47:14;;;;;;;2.33;2.13;;;;;;;5.68;100.00;100049.81;5090822;28;20198;-67
2023/11/19 07:49:43;;;;;;;2.85;2.30;;;;;;;5.99;100.00;100057.59;5100836;28;20175;-67
2023/11/19 07:52:13;;;;;;;3.17;2.88;;;;;;;5.91;100.00;100057.72;5083051;28;20214;-67
2023/11/19 07:54:45;;;;;;;1.75;1.27;;;;;;;5.99;100.00;100062.13;5093996;28;20722;-64
2023/11/19 07:57:14;;;;;;;3.42;1.88;;;;;;;5.90;100.00;100048.00;5092907;28;20184;-65
2023/11/19 07:59:44;;;;;;;1.73;1.50;;;;;;;5.95;100.00;100063.56;5091945;28;20680;-67
2023/11/19 08:02:14;;;;;;;1.88;1.60;;;;;;;6.01;100.00;100068.13;5092858;28;20191;-66
2023/11/19 08:04:45;;;;;;;3.55;2.33;;;;;;;5.96;100.00;100057.97;5071873;28;20226;-67
2023/11/19 08:07:14;;;;;;;1.45;1.35;;;;;;;5.93;100.00;100061.03;5089876;28;20187;-67
2023/11/19 08:09:43;;;;;;;2.17;1.67;;;;;;;6.11;100.00;100057.88;5080274;28;20901;-66
2023/11/19 08:15:55;;;;;;;2.70;1.63;;;;;;;6.17;100.00;100056.28;5099893;28;20192;-66
2023/11/19 08:18:24;;;;;;;3.42;1.65;;;;;;;6.31;100.00;100050.81;5088592;28;20537;-68
2023/11/19 08:20:53;;;;;;;2.20;1.90;;;;;;;6.44;100.00;100050.09;5089015;28;20212;-66
2023/11/19 08:23:24;;;;;;;2.15;1.95;;;;;;;6.40;100.00;100054.19;5095318;28;20207;-65
2023/11/19 08:25:53;;;;;;;2.58;1.90;;;;;;;6.49;100.00;100039.56;5108342;28;20191;-67
2023/11/19 08:28:22;;;;;;;4.32;2.33;;;;;;;6.54;100.00;100021.84;5092842;28;20675;-66
2023/11/19 08:30:51;;;;;;;3.03;1.80;;;;;;;6.75;100.00;100042.44;5092980;28;20201;-66
2023/11/19 08:33:22;;;;;;;2.95;2.05;;;;;;;6.82;100.00;100021.81;5091790;28;20217;-67
2023/11/19 08:35:51;;;;;;;2.38;1.88;;;;;;;6.92;100.00;100038.38;5090079;28;20187;-67
2023/11/19 08:38:20;;;;;;;4.13;2.25;;;;;;;6.70;100.00;100026.06;5091187;28;20550;-67
2023/11/19 08:40:51;;;;;;;3.22;2.03;;;;;;;6.98;100.00;100029.53;5088556;28;20218;-66
2023/11/19 08:43:20;;;;;;;2.63;2.03;;;;;;;6.82;100.00;100037.94;5096110;28;20215;-68
2023/11/19 08:45:49;;;;;;;2.60;2.00;;;;;;;6.90;100.00;100015.44;5095597;28;20194;-67
2023/11/19 08:48:19;;;;;;;4.63;2.10;;;;;;;7.05;100.00;100009.91;5097536;28;20723;-67
2023/11/19 08:50:48;;;;;;;6.78;2.15;;;;;;;7.26;100.00;100015.19;5091982;28;20180;-66
2023/11/19 08:53:17;;;;;;;7.43;2.85;;;;;;;7.27;100.00;100014.94;5096541;28;20214;-67
2023/11/19 08:55:46;;;;;;;4.22;2.25;;;;;;;7.36;100.00;100002.97;5103093;28;20226;-67
2023/11/19 08:58:15;;;;;;;3.42;2.30;;;;;;;7.46;100.00;100013.34;5071315;28;20346;-66
2023/11/19 09:00:44;;;;;;;2.60;1.92;;;;;;;7.60;100.00;100006.16;5102757;28;20645;-65
2023/11/19 09:03:13;;;;;;;5.95;2.30;;;;;;;7.78;100.00;100001.00;5083745;28;20191;-67
2023/11/19 09:05:44;;;;;;;2.65;1.52;;;;;;;7.72;100.00;100013.41;5095842;28;20195;-67
2023/11/19 09:08:13;;;;;;;4.65;2.42;;;;;;;7.63;100.00;100013.81;5095945;28;20673;-67
2023/11/19 09:10:42;;;;;;;2.90;2.10;;;;;;;7.47;100.00;100012.31;5096246;28;20182;-68
2023/11/19 09:13:11;;;;;;;3.83;2.55;;;;;;;7.63;100.00;100030.78;5092119;28;20555;-66
2023/11/19 09:15:40;;;;;;;3.10;2.50;;;;;;;7.62;100.00;100029.13;5091350;28;20195;-66
2023/11/19 09:18:09;;;;;;;3.38;2.60;;;;;;;7.73;100.00;100031.25;5102844;28;20199;-67
2023/11/19 09:20:38;;;;;;;2.58;2.30;;;;;;;8.08;100.00;100044.53;5094954;28;20203;-66
2023/11/19 09:23:09;;;;;;;2.30;1.98;;;;;;;8.07;100.00;100016.75;5078292;28;20202;-69
2023/11/19 09:25:38;;;;;;;2.55;1.85;;;;;;;8.19;100.00;100047.44;5101280;28;20194;-65
2023/11/19 09:28:10;;;;;;;4.50;2.47;;;;;;;8.16;100.00;100042.47;5080195;28;20195;-67
2023/11/19 09:30:39;;;;;;;3.97;2.38;;;;;;;8.29;100.00;100036.22;5097386;28;20183;-66
2023/11/19 09:33:08;;;;;;;3.20;2.38;;;;;;;8.70;100.00;100020.66;5095119;28;20195;-68
2023/11/19 09:35:37;;;;;;;5.82;2.58;;;;;;;8.73;100.00;100014.00;5099781;28;20248;-67
2023/11/19 09:38:06;;;;;;;2.10;1.75;;;;;;;8.92;100.00;100015.81;5095603;28;20191;-67
2023/11/19 09:40:38;;;;;;;3.25;2.95;;;;;;;9.07;100.00;100005.59;5102713;28;20213;-67
2023/11/19 09:43:08;;;;;;;5.13;1.90;;;;;;;9.32;100.00;100015.66;5095209;28;20191;-67
2023/11/19 09:45:49;;;;;;;2.30;1.95;;;;;;;9.26;100.00;100005.72;5089667;28;20192;-65
2023/11/19 09:48:19;;;;;;;2.40;1.57;;;;;;;9.49;100.00;99995.19;5090376;28;20194;-67
2023/11/19 09:50:49;;;;;;;3.00;2.10;;;;;;;10.06;100.00;100006.88;5093294;28;20403;-67
2023/11/19 09:53:20;;;;;;;4.43;2.27;;;;;;;10.29;100.00;100004.41;5094566;28;20846;-67
2023/11/19 09:55:51;;;;;;;2.40;1.53;;;;;;;10.14;100.00;99990.38;5093101;28;20419;-67
2023/11/19 09:58:20;;;;;;;2.63;1.50;;;;;;;10.35;100.00;100000.84;5075068;28;20835;-66
2023/11/19 10:00:51;;;;;;;1.87;1.70;;;;;;;10.38;100.00;99998.50;5096170;28;20432;-67
2023/11/19 10:03:43;;;;;;;1.97;1.83;;;;;;;10.51;100.00;99996.72;5080897;28;20865;-68
2023/11/19 10:06:13;;;;;;;3.17;1.77;;;;;;;10.41;100.00;99994.50;5092505;28;20395;-66
2023/11/19 10:08:43;;;;;;;3.33;2.70;;;;;;;10.51;100.00;100000.25;5088558;28;20429;-66
2023/11/19 10:11:15;;;;;;;4.83;1.57;;;;;;;10.67;100.00;100002.38;5082462;28;20496;-67
2023/11/19 10:13:47;;;;;;;2.67;1.77;;;;;;;10.63;100.00;99993.06;5090721;28;20980;-65
2023/11/19 10:16:18;;;;;;;1.53;1.30;;;;;;;10.82;100.00;100002.84;5087985;28;20958;-65
2023/11/19 10:18:50;;;;;;;7.23;1.70;;;;;;;10.79;100.00;99995.19;5092909;28;20412;-65
2023/11/19 10:21:20;;;;;;;3.27;2.33;;;;;;;10.68;100.00;100001.34;5090260;28;20885;-66
2023/11/19 10:23:53;;;;;;;1.80;1.30;;;;;;;10.72;100.00;99997.13;5089007;28;20424;-65
2023/11/19 10:26:24;;;;;;;3.77;1.60;;;;;;;10.71;100.00;99987.34;5092561;28;20948;-67
2023/11/19 10:28:53;;;;;;;3.03;1.40;;;;;;;10.58;100.00;99992.91;5094193;28;20400;-66
2023/11/19 10:31:24;;;;;;;8.50;3.37;;;;;;;10.77;100.00;99989.16;5096750;28;20426;-67
2023/11/19 10:33:54;;;;;;;1.90;1.33;;;;;;;10.72;100.00;99980.88;5088898;28;20449;-67
2023/11/19 10:36:25;;;;;;;2.47;1.17;;;;;;;10.86;100.00;99966.16;5069986;28;20499;-67
2023/11/19 10:38:55;;;;;;;3.40;1.30;;;;;;;10.95;100.00;99958.53;5099483;28;20428;-66
2023/11/19 10:41:32;;;;;;;1.80;1.37;;;;;;;11.12;100.00;99958.75;5088317;28;20444;-66
2023/11/19 10:44:01;;;;;;;2.90;2.53;;;;;;;11.29;100.00;99960.59;5097077;28;20445;-67
2023/11/19 10:46:40;;;;;;;3.63;1.90;;;;;;;11.34;100.00;99957.19;5094482;28;20488;-67
2023/11/19 10:49:10;;;;;;;3.20;1.27;;;;;;;11.40;100.00;99958.16;5060069;28;20532;-67
2023/11/19 10:51:45;;;;;;;1.07;0.80;;;;;;;11.21;100.00;99957.38;5089298;28;20921;-67
2023/11/19 10:54:19;;;;;;;2.30;1.87;;;;;;;11.34;100.00;99957.19;5083162;28;20427;-66
2023/11/19 10:56:55;;;;;;;6.80;1.43;;;;;;;11.30;100.00;99966.84;5096827;28;20481;-66
2023/11/19 10:59:26;;;;;;;3.00;1.20;;;;;;;11.28;100.00;99968.94;5085812;28;20396;-67
2023/11/19 11:02:05;;;;;;;3.90;1.93;;;;;;;11.44;100.00;99954.75;5076002;28;20461;-66
2023/11/19 11:04:38;;;;;;;2.03;1.57;;;;;;;11.51;100.00;99958.22;5078698;28;20446;-66
2023/11/19 11:07:08;;;;;;;4.17;2.70;;;;;;;11.57;100.00;99961.88;5075879;28;20952;-66
2023/11/19 11:09:38;;;;;;;4.30;1.60;;;;;;;11.73;100.00;99956.66;5100991;28;20935;-66
2023/11/19 11:12:12;;;;;;;3.27;1.80;;;;;;;11.79;100.00;99949.47;5071169;28;20405;-67
2023/11/19 11:14:43;;;;;;;5.10;2.30;;;;;;;11.93;100.00;99950.06;5076839;28;20997;-66
2023/11/19 11:17:18;;;;;;;6.30;1.73;;;;;;;12.09;100.00;99944.81;5074381;28;20441;-65
2023/11/19 11:19:47;;;;;;;2.77;1.77;;;;;;;12.33;100.00;99940.19;5083816;28;20421;-66
2023/11/19 11:22:18;;;;;;;2.83;1.40;;;;;;;12.67;100.00;99952.09;5065617;28;20805;-65
2023/11/19 11:25:24;;;;;;;2.93;1.63;;;;;;;12.63;100.00;99957.16;5067589;28;20898;-67
2023/11/19 11:28:15;;;;;;;7.90;1.77;;;;;;;12.60;100.00;99963.06;5081233;28;20785;-65
2023/11/19 11:31:01;;;;;;;6.90;1.20;;;;;;;12.61;100.00;99959.28;5082853;28;20412;-65
2023/11/19 11:33:42;;;;;;;1.93;1.17;;;;;;;12.81;100.00;99948.03;5087712;28;20424;-67
2023/11/19 11:36:20;;;;;;;3.63;1.50;;;;;;;12.69;100.00;99947.22;5086818;28;20404;-67
2023/11/19 11:38:50;;;;;;;5.83;1.70;;;;;;;12.57;100.00;99947.25;5091871;28;20416;-66
2023/11/19 11:41:21;;;;;;;2.00;1.70;;;;;;;12.67;100.00;99937.69;5084735;28;20416;-68
2023/11/19 11:43:55;;;;;;;2.13;1.30;;;;;;;12.76;100.00;99938.97;5093334;28;20491;-66
2023/11/19 11:46:55;;;;;;;2.67;1.63;;;;;;;13.12;100.00;99948.72;5091858;28;20430;-67